sensor_id;sensor_type;location;lat;lon;timestamp;P1;durP1;ratioP1;P2;durP2;ratioP2
57561;SDS011;43397;51.530;5.974;2023-03-03T00:00:09;58.65;;;26.85;;
57561;SDS011;43397;51.530;5.974;2023-03-03T00:02:35;63.50;;;28.75;;
57561;SDS011;43397;51.530;5.974;2023-03-03T00:05:01;59.90;;;27.90;;
57561;SDS011;43397;51.530;5.974;2023-03-03T00:07:28;59.13;;;26.95;;
57561;SDS011;43397;51.530;5.974;2023-03-03T00:09:53;56.75;;;27.23;;
57561;SDS011;43397;51.530;5.974;2023-03-03T00:12:22;51.45;;;22.42;;
57561;SDS011;43397;51.530;5.974;2023-03-03T00:14:48;70.63;;;28.35;;
57561;SDS011;43397;51.530;5.974;2023-03-03T00:17:16;64.38;;;30.50;;
57561;SDS011;43397;51.530;5.974;2023-03-03T00:19:46;72.65;;;33.13;;
57561;SDS011;43397;51.530;5.974;2023-03-03T00:22:13;74.63;;;32.00;;
57561;SDS011;43397;51.530;5.974;2023-03-03T00:24:45;71.40;;;28.73;;
57561;SDS011;43397;51.530;5.974;2023-03-03T00:27:15;88.97;;;34.63;;
57561;SDS011;43397;51.530;5.974;2023-03-03T00:29:50;84.30;;;33.20;;
57561;SDS011;43397;51.530;5.974;2023-03-03T00:32:20;89.18;;;34.35;;
57561;SDS011;43397;51.530;5.974;2023-03-03T00:34:48;63.33;;;27.98;;
57561;SDS011;43397;51.530;5.974;2023-03-03T00:37:22;76.30;;;31.08;;
57561;SDS011;43397;51.530;5.974;2023-03-03T00:39:57;76.10;;;29.92;;
57561;SDS011;43397;51.530;5.974;2023-03-03T00:42:27;82.10;;;34.08;;
57561;SDS011;43397;51.530;5.974;2023-03-03T00:44:56;84.22;;;30.02;;
57561;SDS011;43397;51.530;5.974;2023-03-03T00:47:23;70.75;;;27.33;;
57561;SDS011;43397;51.530;5.974;2023-03-03T00:49:55;81.85;;;31.52;;
57561;SDS011;43397;51.530;5.974;2023-03-03T00:52:44;89.80;;;32.13;;
57561;SDS011;43397;51.530;5.974;2023-03-03T00:55:22;84.28;;;31.45;;
57561;SDS011;43397;51.530;5.974;2023-03-03T00:57:48;80.82;;;28.23;;
57561;SDS011;43397;51.530;5.974;2023-03-03T01:00:15;83.78;;;32.78;;
57561;SDS011;43397;51.530;5.974;2023-03-03T01:02:41;67.40;;;25.65;;
57561;SDS011;43397;51.530;5.974;2023-03-03T01:05:07;85.03;;;31.52;;
57561;SDS011;43397;51.530;5.974;2023-03-03T01:07:36;87.63;;;30.50;;
57561;SDS011;43397;51.530;5.974;2023-03-03T01:10:02;72.57;;;27.75;;
57561;SDS011;43397;51.530;5.974;2023-03-03T01:12:28;72.20;;;27.67;;
57561;SDS011;43397;51.530;5.974;2023-03-03T01:14:56;80.72;;;29.17;;
57561;SDS011;43397;51.530;5.974;2023-03-03T01:17:23;80.28;;;29.80;;
57561;SDS011;43397;51.530;5.974;2023-03-03T01:19:49;58.63;;;23.10;;
57561;SDS011;43397;51.530;5.974;2023-03-03T01:22:14;82.30;;;28.75;;
57561;SDS011;43397;51.530;5.974;2023-03-03T01:24:40;86.30;;;30.48;;
57561;SDS011;43397;51.530;5.974;2023-03-03T01:27:06;82.47;;;31.35;;
57561;SDS011;43397;51.530;5.974;2023-03-03T01:29:31;88.32;;;32.15;;
57561;SDS011;43397;51.530;5.974;2023-03-03T01:31:57;85.03;;;29.63;;
57561;SDS011;43397;51.530;5.974;2023-03-03T01:34:24;83.00;;;29.65;;
57561;SDS011;43397;51.530;5.974;2023-03-03T01:36:50;77.15;;;29.55;;
57561;SDS011;43397;51.530;5.974;2023-03-03T01:39:16;89.60;;;30.58;;
57561;SDS011;43397;51.530;5.974;2023-03-03T01:41:41;83.93;;;31.38;;
57561;SDS011;43397;51.530;5.974;2023-03-03T01:44:08;82.40;;;29.77;;
57561;SDS011;43397;51.530;5.974;2023-03-03T01:46:50;77.47;;;28.73;;
57561;SDS011;43397;51.530;5.974;2023-03-03T01:49:20;69.45;;;25.35;;
57561;SDS011;43397;51.530;5.974;2023-03-03T01:51:53;82.93;;;29.65;;
57561;SDS011;43397;51.530;5.974;2023-03-03T01:54:22;84.32;;;28.63;;
57561;SDS011;43397;51.530;5.974;2023-03-03T01:56:52;79.68;;;29.75;;
57561;SDS011;43397;51.530;5.974;2023-03-03T01:59:21;81.45;;;29.27;;
57561;SDS011;43397;51.530;5.974;2023-03-03T02:01:50;73.95;;;29.13;;
57561;SDS011;43397;51.530;5.974;2023-03-03T02:04:16;82.80;;;30.73;;
57561;SDS011;43397;51.530;5.974;2023-03-03T02:06:44;73.70;;;27.38;;
57561;SDS011;43397;51.530;5.974;2023-03-03T02:09:15;76.57;;;26.35;;
57561;SDS011;43397;51.530;5.974;2023-03-03T02:11:46;75.30;;;27.70;;
57561;SDS011;43397;51.530;5.974;2023-03-03T02:14:15;67.82;;;25.33;;
57561;SDS011;43397;51.530;5.974;2023-03-03T02:16:40;69.38;;;25.42;;
57561;SDS011;43397;51.530;5.974;2023-03-03T02:19:09;69.68;;;25.67;;
57561;SDS011;43397;51.530;5.974;2023-03-03T02:21:40;71.90;;;27.15;;
57561;SDS011;43397;51.530;5.974;2023-03-03T02:24:07;75.47;;;28.10;;
57561;SDS011;43397;51.530;5.974;2023-03-03T02:26:39;63.03;;;26.23;;
57561;SDS011;43397;51.530;5.974;2023-03-03T02:29:06;73.22;;;26.58;;
57561;SDS011;43397;51.530;5.974;2023-03-03T02:31:32;65.40;;;24.92;;
57561;SDS011;43397;51.530;5.974;2023-03-03T02:33:58;33.95;;;17.60;;
57561;SDS011;43397;51.530;5.974;2023-03-03T02:36:25;63.83;;;23.92;;
57561;SDS011;43397;51.530;5.974;2023-03-03T02:38:54;59.95;;;23.42;;
57561;SDS011;43397;51.530;5.974;2023-03-03T02:41:28;62.50;;;25.10;;
57561;SDS011;43397;51.530;5.974;2023-03-03T02:44:00;65.18;;;25.25;;
57561;SDS011;43397;51.530;5.974;2023-03-03T02:48:53;56.13;;;21.25;;
57561;SDS011;43397;51.530;5.974;2023-03-03T02:51:19;73.88;;;26.67;;
57561;SDS011;43397;51.530;5.974;2023-03-03T02:53:45;59.85;;;23.40;;
57561;SDS011;43397;51.530;5.974;2023-03-03T02:56:11;60.05;;;24.55;;
57561;SDS011;43397;51.530;5.974;2023-03-03T02:58:36;62.22;;;26.83;;
57561;SDS011;43397;51.530;5.974;2023-03-03T03:01:04;62.97;;;24.60;;
57561;SDS011;43397;51.530;5.974;2023-03-03T03:03:30;67.80;;;24.92;;
57561;SDS011;43397;51.530;5.974;2023-03-03T03:05:56;60.60;;;23.88;;
57561;SDS011;43397;51.530;5.974;2023-03-03T03:08:22;73.53;;;25.88;;
57561;SDS011;43397;51.530;5.974;2023-03-03T03:10:48;65.30;;;24.58;;
57561;SDS011;43397;51.530;5.974;2023-03-03T03:13:14;62.13;;;23.52;;
57561;SDS011;43397;51.530;5.974;2023-03-03T03:15:40;61.33;;;25.70;;
57561;SDS011;43397;51.530;5.974;2023-03-03T03:18:07;62.03;;;23.48;;
57561;SDS011;43397;51.530;5.974;2023-03-03T03:20:34;59.78;;;21.80;;
57561;SDS011;43397;51.530;5.974;2023-03-03T03:23:00;54.05;;;22.23;;
57561;SDS011;43397;51.530;5.974;2023-03-03T03:25:26;52.83;;;20.75;;
57561;SDS011;43397;51.530;5.974;2023-03-03T03:27:52;56.45;;;22.70;;
57561;SDS011;43397;51.530;5.974;2023-03-03T03:30:18;57.38;;;25.70;;
57561;SDS011;43397;51.530;5.974;2023-03-03T03:32:44;58.85;;;23.73;;
57561;SDS011;43397;51.530;5.974;2023-03-03T03:35:11;58.92;;;26.27;;
57561;SDS011;43397;51.530;5.974;2023-03-03T03:37:36;56.70;;;24.73;;
57561;SDS011;43397;51.530;5.974;2023-03-03T03:40:02;57.78;;;23.95;;
57561;SDS011;43397;51.530;5.974;2023-03-03T03:42:30;51.53;;;23.58;;
57561;SDS011;43397;51.530;5.974;2023-03-03T03:44:55;58.13;;;24.13;;
57561;SDS011;43397;51.530;5.974;2023-03-03T03:47:21;54.13;;;26.45;;
57561;SDS011;43397;51.530;5.974;2023-03-03T03:49:47;60.42;;;25.60;;
57561;SDS011;43397;51.530;5.974;2023-03-03T03:52:14;43.97;;;23.05;;
57561;SDS011;43397;51.530;5.974;2023-03-03T03:54:40;54.55;;;23.77;;
57561;SDS011;43397;51.530;5.974;2023-03-03T03:57:06;58.92;;;26.15;;
57561;SDS011;43397;51.530;5.974;2023-03-03T03:59:32;48.88;;;23.98;;
57561;SDS011;43397;51.530;5.974;2023-03-03T04:01:57;51.30;;;22.75;;
57561;SDS011;43397;51.530;5.974;2023-03-03T04:04:23;33.50;;;15.25;;
57561;SDS011;43397;51.530;5.974;2023-03-03T04:06:49;51.58;;;21.75;;
57561;SDS011;43397;51.530;5.974;2023-03-03T04:09:16;54.42;;;24.23;;
57561;SDS011;43397;51.530;5.974;2023-03-03T04:11:42;45.92;;;23.10;;
57561;SDS011;43397;51.530;5.974;2023-03-03T04:14:07;34.95;;;19.52;;
57561;SDS011;43397;51.530;5.974;2023-03-03T04:16:33;41.53;;;19.33;;
57561;SDS011;43397;51.530;5.974;2023-03-03T04:18:59;50.63;;;23.50;;
57561;SDS011;43397;51.530;5.974;2023-03-03T04:21:25;46.00;;;22.90;;
57561;SDS011;43397;51.530;5.974;2023-03-03T04:23:51;44.25;;;23.33;;
57561;SDS011;43397;51.530;5.974;2023-03-03T04:26:18;48.65;;;25.20;;
57561;SDS011;43397;51.530;5.974;2023-03-03T04:28:43;52.20;;;23.73;;
57561;SDS011;43397;51.530;5.974;2023-03-03T04:31:09;34.13;;;16.13;;
57561;SDS011;43397;51.530;5.974;2023-03-03T04:33:35;32.22;;;15.70;;
57561;SDS011;43397;51.530;5.974;2023-03-03T04:36:01;41.65;;;20.10;;
57561;SDS011;43397;51.530;5.974;2023-03-03T04:38:26;45.80;;;20.95;;
57561;SDS011;43397;51.530;5.974;2023-03-03T04:40:52;49.92;;;24.50;;
57561;SDS011;43397;51.530;5.974;2023-03-03T04:43:19;51.15;;;21.05;;
57561;SDS011;43397;51.530;5.974;2023-03-03T04:45:45;47.53;;;23.15;;
57561;SDS011;43397;51.530;5.974;2023-03-03T04:48:11;53.22;;;25.63;;
57561;SDS011;43397;51.530;5.974;2023-03-03T04:50:36;51.65;;;24.65;;
57561;SDS011;43397;51.530;5.974;2023-03-03T04:53:02;33.08;;;17.70;;
57561;SDS011;43397;51.530;5.974;2023-03-03T04:55:28;38.45;;;17.08;;
57561;SDS011;43397;51.530;5.974;2023-03-03T04:57:54;41.50;;;20.60;;
57561;SDS011;43397;51.530;5.974;2023-03-03T05:00:21;40.90;;;19.23;;
57561;SDS011;43397;51.530;5.974;2023-03-03T05:02:47;53.17;;;24.10;;
57561;SDS011;43397;51.530;5.974;2023-03-03T05:05:13;37.80;;;18.63;;
57561;SDS011;43397;51.530;5.974;2023-03-03T05:07:39;45.55;;;22.60;;
57561;SDS011;43397;51.530;5.974;2023-03-03T05:10:06;55.95;;;25.83;;
57561;SDS011;43397;51.530;5.974;2023-03-03T05:12:32;58.30;;;23.20;;
57561;SDS011;43397;51.530;5.974;2023-03-03T05:14:58;50.90;;;21.80;;
57561;SDS011;43397;51.530;5.974;2023-03-03T05:17:25;39.30;;;16.77;;
57561;SDS011;43397;51.530;5.974;2023-03-03T05:19:51;51.22;;;26.55;;
57561;SDS011;43397;51.530;5.974;2023-03-03T05:22:16;57.00;;;25.05;;
57561;SDS011;43397;51.530;5.974;2023-03-03T05:24:42;45.75;;;22.55;;
57561;SDS011;43397;51.530;5.974;2023-03-03T05:27:08;46.28;;;23.17;;
57561;SDS011;43397;51.530;5.974;2023-03-03T05:29:34;44.78;;;21.88;;
57561;SDS011;43397;51.530;5.974;2023-03-03T05:32:00;47.95;;;21.33;;
57561;SDS011;43397;51.530;5.974;2023-03-03T05:34:27;44.75;;;21.80;;
57561;SDS011;43397;51.530;5.974;2023-03-03T05:36:53;44.55;;;20.00;;
57561;SDS011;43397;51.530;5.974;2023-03-03T05:39:19;36.83;;;18.88;;
57561;SDS011;43397;51.530;5.974;2023-03-03T05:41:44;39.70;;;18.60;;
57561;SDS011;43397;51.530;5.974;2023-03-03T05:44:10;40.03;;;18.48;;
57561;SDS011;43397;51.530;5.974;2023-03-03T05:46:36;41.47;;;20.77;;
57561;SDS011;43397;51.530;5.974;2023-03-03T05:49:02;42.05;;;20.48;;
57561;SDS011;43397;51.530;5.974;2023-03-03T05:51:29;50.22;;;23.27;;
57561;SDS011;43397;51.530;5.974;2023-03-03T05:53:54;45.97;;;20.35;;
57561;SDS011;43397;51.530;5.974;2023-03-03T05:56:20;50.22;;;22.77;;
57561;SDS011;43397;51.530;5.974;2023-03-03T05:58:47;45.30;;;21.95;;
57561;SDS011;43397;51.530;5.974;2023-03-03T06:01:13;51.63;;;20.85;;
57561;SDS011;43397;51.530;5.974;2023-03-03T06:03:39;48.22;;;22.42;;
57561;SDS011;43397;51.530;5.974;2023-03-03T06:06:05;49.40;;;21.88;;
57561;SDS011;43397;51.530;5.974;2023-03-03T06:08:33;53.13;;;23.02;;
57561;SDS011;43397;51.530;5.974;2023-03-03T06:10:58;46.92;;;20.67;;
57561;SDS011;43397;51.530;5.974;2023-03-03T06:13:24;41.53;;;20.13;;
57561;SDS011;43397;51.530;5.974;2023-03-03T06:15:50;47.08;;;22.60;;
57561;SDS011;43397;51.530;5.974;2023-03-03T06:18:16;49.22;;;20.75;;
57561;SDS011;43397;51.530;5.974;2023-03-03T06:20:42;45.58;;;20.33;;
57561;SDS011;43397;51.530;5.974;2023-03-03T06:23:07;35.88;;;17.10;;
57561;SDS011;43397;51.530;5.974;2023-03-03T06:25:34;44.80;;;20.60;;
57561;SDS011;43397;51.530;5.974;2023-03-03T06:28:00;45.17;;;20.00;;
57561;SDS011;43397;51.530;5.974;2023-03-03T06:30:26;45.92;;;19.48;;
57561;SDS011;43397;51.530;5.974;2023-03-03T06:32:51;49.42;;;21.55;;
57561;SDS011;43397;51.530;5.974;2023-03-03T06:35:17;48.65;;;20.65;;
57561;SDS011;43397;51.530;5.974;2023-03-03T06:37:43;50.88;;;20.90;;
57561;SDS011;43397;51.530;5.974;2023-03-03T06:40:09;50.75;;;22.42;;
57561;SDS011;43397;51.530;5.974;2023-03-03T06:42:37;45.72;;;21.10;;
57561;SDS011;43397;51.530;5.974;2023-03-03T06:45:03;45.53;;;21.02;;
57561;SDS011;43397;51.530;5.974;2023-03-03T06:47:29;48.22;;;19.17;;
57561;SDS011;43397;51.530;5.974;2023-03-03T06:49:55;37.25;;;15.35;;
57561;SDS011;43397;51.530;5.974;2023-03-03T06:52:22;42.05;;;17.70;;
57561;SDS011;43397;51.530;5.974;2023-03-03T06:54:49;38.80;;;17.58;;
57561;SDS011;43397;51.530;5.974;2023-03-03T06:57:19;47.05;;;22.35;;
57561;SDS011;43397;51.530;5.974;2023-03-03T06:59:51;40.38;;;18.70;;
57561;SDS011;43397;51.530;5.974;2023-03-03T07:02:18;51.25;;;20.27;;
57561;SDS011;43397;51.530;5.974;2023-03-03T07:04:46;46.60;;;19.70;;
57561;SDS011;43397;51.530;5.974;2023-03-03T07:07:14;44.03;;;19.30;;
57561;SDS011;43397;51.530;5.974;2023-03-03T07:09:42;47.30;;;20.33;;
57561;SDS011;43397;51.530;5.974;2023-03-03T07:12:10;44.00;;;19.98;;
57561;SDS011;43397;51.530;5.974;2023-03-03T07:14:40;48.58;;;21.08;;
57561;SDS011;43397;51.530;5.974;2023-03-03T07:17:10;48.75;;;19.75;;
57561;SDS011;43397;51.530;5.974;2023-03-03T07:19:41;44.58;;;19.00;;
57561;SDS011;43397;51.530;5.974;2023-03-03T07:22:11;46.10;;;20.05;;
57561;SDS011;43397;51.530;5.974;2023-03-03T07:24:40;47.28;;;19.60;;
57561;SDS011;43397;51.530;5.974;2023-03-03T07:27:09;45.53;;;19.92;;
57561;SDS011;43397;51.530;5.974;2023-03-03T07:29:40;41.55;;;18.92;;
57561;SDS011;43397;51.530;5.974;2023-03-03T07:32:14;43.45;;;19.10;;
57561;SDS011;43397;51.530;5.974;2023-03-03T07:34:47;39.55;;;17.95;;
57561;SDS011;43397;51.530;5.974;2023-03-03T07:37:15;42.28;;;18.10;;
57561;SDS011;43397;51.530;5.974;2023-03-03T07:39:42;36.70;;;17.53;;
57561;SDS011;43397;51.530;5.974;2023-03-03T07:42:23;39.28;;;17.92;;
57561;SDS011;43397;51.530;5.974;2023-03-03T07:44:50;36.03;;;15.55;;
57561;SDS011;43397;51.530;5.974;2023-03-03T07:47:20;33.03;;;15.93;;
57561;SDS011;43397;51.530;5.974;2023-03-03T07:49:48;32.33;;;14.00;;
57561;SDS011;43397;51.530;5.974;2023-03-03T07:52:18;42.60;;;16.45;;
57561;SDS011;43397;51.530;5.974;2023-03-03T07:54:50;30.45;;;12.88;;
57561;SDS011;43397;51.530;5.974;2023-03-03T07:57:18;35.78;;;15.07;;
57561;SDS011;43397;51.530;5.974;2023-03-03T07:59:47;38.03;;;15.15;;
57561;SDS011;43397;51.530;5.974;2023-03-03T08:02:22;32.97;;;14.85;;
57561;SDS011;43397;51.530;5.974;2023-03-03T08:05:20;36.35;;;15.52;;
57561;SDS011;43397;51.530;5.974;2023-03-03T08:07:51;29.75;;;13.10;;
57561;SDS011;43397;51.530;5.974;2023-03-03T08:10:26;32.70;;;14.52;;
57561;SDS011;43397;51.530;5.974;2023-03-03T08:12:58;32.33;;;12.45;;
57561;SDS011;43397;51.530;5.974;2023-03-03T08:15:35;29.92;;;14.73;;
57561;SDS011;43397;51.530;5.974;2023-03-03T08:18:08;39.88;;;15.32;;
57561;SDS011;43397;51.530;5.974;2023-03-03T08:20:43;36.67;;;15.88;;
57561;SDS011;43397;51.530;5.974;2023-03-03T08:23:11;35.20;;;16.40;;
57561;SDS011;43397;51.530;5.974;2023-03-03T08:25:37;37.80;;;17.75;;
57561;SDS011;43397;51.530;5.974;2023-03-03T08:28:03;31.05;;;14.60;;
57561;SDS011;43397;51.530;5.974;2023-03-03T08:30:29;40.22;;;17.13;;
57561;SDS011;43397;51.530;5.974;2023-03-03T08:32:55;30.88;;;12.95;;
57561;SDS011;43397;51.530;5.974;2023-03-03T08:35:22;30.00;;;14.00;;
57561;SDS011;43397;51.530;5.974;2023-03-03T08:37:49;36.70;;;17.33;;
57561;SDS011;43397;51.530;5.974;2023-03-03T08:40:15;33.95;;;15.20;;
57561;SDS011;43397;51.530;5.974;2023-03-03T08:42:41;28.73;;;14.68;;
57561;SDS011;43397;51.530;5.974;2023-03-03T08:45:07;36.03;;;16.98;;
57561;SDS011;43397;51.530;5.974;2023-03-03T08:47:33;40.60;;;18.27;;
57561;SDS011;43397;51.530;5.974;2023-03-03T08:49:58;32.55;;;14.85;;
57561;SDS011;43397;51.530;5.974;2023-03-03T08:52:25;35.72;;;16.27;;
57561;SDS011;43397;51.530;5.974;2023-03-03T08:54:51;38.30;;;17.27;;
57561;SDS011;43397;51.530;5.974;2023-03-03T08:57:17;38.97;;;17.17;;
57561;SDS011;43397;51.530;5.974;2023-03-03T08:59:42;36.92;;;17.25;;
57561;SDS011;43397;51.530;5.974;2023-03-03T09:02:08;37.10;;;17.48;;
57561;SDS011;43397;51.530;5.974;2023-03-03T09:04:34;34.90;;;16.52;;
57561;SDS011;43397;51.530;5.974;2023-03-03T09:07:00;36.97;;;17.23;;
57561;SDS011;43397;51.530;5.974;2023-03-03T09:09:28;45.65;;;19.77;;
57561;SDS011;43397;51.530;5.974;2023-03-03T09:11:54;29.15;;;13.93;;
57561;SDS011;43397;51.530;5.974;2023-03-03T09:14:24;30.45;;;15.80;;
57561;SDS011;43397;51.530;5.974;2023-03-03T09:16:54;30.20;;;14.65;;
57561;SDS011;43397;51.530;5.974;2023-03-03T09:19:22;33.78;;;14.95;;
57561;SDS011;43397;51.530;5.974;2023-03-03T09:21:50;32.05;;;14.70;;
57561;SDS011;43397;51.530;5.974;2023-03-03T09:24:18;37.35;;;16.63;;
57561;SDS011;43397;51.530;5.974;2023-03-03T09:26:50;40.33;;;19.27;;
57561;SDS011;43397;51.530;5.974;2023-03-03T09:29:17;35.35;;;13.73;;
57561;SDS011;43397;51.530;5.974;2023-03-03T09:31:49;31.92;;;13.77;;
57561;SDS011;43397;51.530;5.974;2023-03-03T09:34:20;35.67;;;15.20;;
57561;SDS011;43397;51.530;5.974;2023-03-03T09:36:48;33.55;;;15.88;;
57561;SDS011;43397;51.530;5.974;2023-03-03T09:39:16;34.65;;;14.98;;
57561;SDS011;43397;51.530;5.974;2023-03-03T09:41:45;33.47;;;16.42;;
57561;SDS011;43397;51.530;5.974;2023-03-03T09:44:29;33.60;;;15.95;;
57561;SDS011;43397;51.530;5.974;2023-03-03T09:47:24;35.50;;;16.35;;
57561;SDS011;43397;51.530;5.974;2023-03-03T09:50:17;31.95;;;15.68;;
57561;SDS011;43397;51.530;5.974;2023-03-03T09:52:55;33.80;;;16.25;;
57561;SDS011;43397;51.530;5.974;2023-03-03T09:55:37;35.22;;;17.40;;
57561;SDS011;43397;51.530;5.974;2023-03-03T09:58:18;37.40;;;17.48;;
57561;SDS011;43397;51.530;5.974;2023-03-03T10:01:02;36.58;;;17.15;;
57561;SDS011;43397;51.530;5.974;2023-03-03T10:03:49;34.30;;;15.63;;
57561;SDS011;43397;51.530;5.974;2023-03-03T10:06:26;29.98;;;14.13;;
57561;SDS011;43397;51.530;5.974;2023-03-03T10:09:03;31.50;;;16.30;;
57561;SDS011;43397;51.530;5.974;2023-03-03T10:11:48;34.67;;;17.88;;
57561;SDS011;43397;51.530;5.974;2023-03-03T10:14:30;32.50;;;16.80;;
57561;SDS011;43397;51.530;5.974;2023-03-03T10:20:01;43.67;;;21.50;;
57561;SDS011;43397;51.530;5.974;2023-03-03T10:22:38;32.05;;;14.77;;
57561;SDS011;43397;51.530;5.974;2023-03-03T10:25:14;36.75;;;15.95;;
57561;SDS011;43397;51.530;5.974;2023-03-03T10:27:58;29.95;;;15.43;;
57561;SDS011;43397;51.530;5.974;2023-03-03T10:30:39;29.65;;;13.95;;
57561;SDS011;43397;51.530;5.974;2023-03-03T10:33:11;32.28;;;15.13;;
57561;SDS011;43397;51.530;5.974;2023-03-03T10:35:48;30.33;;;15.00;;
57561;SDS011;43397;51.530;5.974;2023-03-03T10:38:29;29.92;;;14.80;;
57561;SDS011;43397;51.530;5.974;2023-03-03T10:41:06;40.33;;;20.77;;
57561;SDS011;43397;51.530;5.974;2023-03-03T10:43:49;31.63;;;16.73;;
57561;SDS011;43397;51.530;5.974;2023-03-03T10:46:33;24.40;;;13.65;;
57561;SDS011;43397;51.530;5.974;2023-03-03T10:49:12;55.15;;;31.00;;
57561;SDS011;43397;51.530;5.974;2023-03-03T10:51:49;33.22;;;17.65;;
57561;SDS011;43397;51.530;5.974;2023-03-03T10:54:29;25.83;;;12.65;;
57561;SDS011;43397;51.530;5.974;2023-03-03T10:57:09;28.33;;;14.00;;
57561;SDS011;43397;51.530;5.974;2023-03-03T10:59:48;27.75;;;14.40;;
57561;SDS011;43397;51.530;5.974;2023-03-03T11:02:26;26.80;;;13.20;;
57561;SDS011;43397;51.530;5.974;2023-03-03T11:05:04;25.45;;;14.18;;
57561;SDS011;43397;51.530;5.974;2023-03-03T11:07:41;26.55;;;11.75;;
57561;SDS011;43397;51.530;5.974;2023-03-03T11:10:16;27.75;;;13.25;;
57561;SDS011;43397;51.530;5.974;2023-03-03T11:12:51;26.15;;;13.05;;
57561;SDS011;43397;51.530;5.974;2023-03-03T11:15:33;24.52;;;12.85;;
57561;SDS011;43397;51.530;5.974;2023-03-03T11:18:10;24.80;;;12.02;;
57561;SDS011;43397;51.530;5.974;2023-03-03T11:20:45;28.80;;;13.60;;
57561;SDS011;43397;51.530;5.974;2023-03-03T11:26:20;27.25;;;14.68;;
57561;SDS011;43397;51.530;5.974;2023-03-03T11:29:01;27.00;;;13.43;;
57561;SDS011;43397;51.530;5.974;2023-03-03T11:31:37;27.27;;;14.35;;
57561;SDS011;43397;51.530;5.974;2023-03-03T11:34:14;33.08;;;17.48;;
57561;SDS011;43397;51.530;5.974;2023-03-03T11:37:03;25.77;;;13.95;;
57561;SDS011;43397;51.530;5.974;2023-03-03T11:39:33;25.15;;;13.45;;
57561;SDS011;43397;51.530;5.974;2023-03-03T11:42:03;25.85;;;14.90;;
57561;SDS011;43397;51.530;5.974;2023-03-03T11:44:40;24.77;;;13.68;;
57561;SDS011;43397;51.530;5.974;2023-03-03T11:47:11;27.77;;;13.10;;
57561;SDS011;43397;51.530;5.974;2023-03-03T11:49:46;25.52;;;13.48;;
57561;SDS011;43397;51.530;5.974;2023-03-03T11:52:20;26.17;;;14.40;;
57561;SDS011;43397;51.530;5.974;2023-03-03T11:54:52;25.95;;;14.07;;
57561;SDS011;43397;51.530;5.974;2023-03-03T11:57:26;26.85;;;14.13;;
57561;SDS011;43397;51.530;5.974;2023-03-03T12:00:04;27.35;;;12.48;;
57561;SDS011;43397;51.530;5.974;2023-03-03T12:02:55;26.02;;;12.77;;
57561;SDS011;43397;51.530;5.974;2023-03-03T12:05:32;25.25;;;13.68;;
57561;SDS011;43397;51.530;5.974;2023-03-03T12:08:04;29.10;;;13.57;;
57561;SDS011;43397;51.530;5.974;2023-03-03T12:10:38;25.13;;;13.65;;
57561;SDS011;43397;51.530;5.974;2023-03-03T12:13:13;26.45;;;12.23;;
57561;SDS011;43397;51.530;5.974;2023-03-03T12:15:51;24.33;;;12.45;;
57561;SDS011;43397;51.530;5.974;2023-03-03T12:18:30;25.15;;;14.30;;
57561;SDS011;43397;51.530;5.974;2023-03-03T12:21:12;23.83;;;12.32;;
57561;SDS011;43397;51.530;5.974;2023-03-03T12:23:53;26.02;;;14.32;;
57561;SDS011;43397;51.530;5.974;2023-03-03T12:26:31;23.52;;;13.07;;
57561;SDS011;43397;51.530;5.974;2023-03-03T12:29:04;30.23;;;16.60;;
57561;SDS011;43397;51.530;5.974;2023-03-03T12:31:38;22.65;;;12.93;;
57561;SDS011;43397;51.530;5.974;2023-03-03T12:34:14;22.58;;;12.25;;
57561;SDS011;43397;51.530;5.974;2023-03-03T12:36:52;24.60;;;13.48;;
57561;SDS011;43397;51.530;5.974;2023-03-03T12:39:37;26.55;;;13.85;;
57561;SDS011;43397;51.530;5.974;2023-03-03T12:42:13;27.13;;;14.48;;
57561;SDS011;43397;51.530;5.974;2023-03-03T12:44:47;24.63;;;13.85;;
57561;SDS011;43397;51.530;5.974;2023-03-03T12:47:21;27.15;;;15.13;;
57561;SDS011;43397;51.530;5.974;2023-03-03T12:49:57;26.05;;;14.57;;
57561;SDS011;43397;51.530;5.974;2023-03-03T12:52:34;25.40;;;13.27;;
57561;SDS011;43397;51.530;5.974;2023-03-03T12:55:10;24.70;;;14.63;;
57561;SDS011;43397;51.530;5.974;2023-03-03T12:57:47;26.38;;;13.75;;
57561;SDS011;43397;51.530;5.974;2023-03-03T13:00:22;24.48;;;13.13;;
57561;SDS011;43397;51.530;5.974;2023-03-03T13:02:55;27.17;;;14.82;;
57561;SDS011;43397;51.530;5.974;2023-03-03T13:05:27;22.05;;;11.98;;
57561;SDS011;43397;51.530;5.974;2023-03-03T13:08:02;23.13;;;13.02;;
57561;SDS011;43397;51.530;5.974;2023-03-03T13:10:47;24.05;;;12.35;;
57561;SDS011;43397;51.530;5.974;2023-03-03T13:13:20;22.10;;;12.65;;
57561;SDS011;43397;51.530;5.974;2023-03-03T13:15:56;22.27;;;11.43;;
57561;SDS011;43397;51.530;5.974;2023-03-03T13:18:28;25.08;;;13.55;;
57561;SDS011;43397;51.530;5.974;2023-03-03T13:21:04;19.70;;;10.55;;
57561;SDS011;43397;51.530;5.974;2023-03-03T13:23:40;20.20;;;11.55;;
57561;SDS011;43397;51.530;5.974;2023-03-03T13:26:15;21.92;;;12.00;;
57561;SDS011;43397;51.530;5.974;2023-03-03T13:29:02;21.08;;;11.80;;
57561;SDS011;43397;51.530;5.974;2023-03-03T13:31:34;20.20;;;12.35;;
57561;SDS011;43397;51.530;5.974;2023-03-03T13:34:03;20.27;;;11.27;;
57561;SDS011;43397;51.530;5.974;2023-03-03T13:36:33;23.55;;;12.98;;
57561;SDS011;43397;51.530;5.974;2023-03-03T13:39:09;24.38;;;15.07;;
57561;SDS011;43397;51.530;5.974;2023-03-03T13:41:43;18.90;;;12.00;;
57561;SDS011;43397;51.530;5.974;2023-03-03T13:44:14;21.25;;;11.93;;
57561;SDS011;43397;51.530;5.974;2023-03-03T13:46:51;15.05;;;8.98;;
57561;SDS011;43397;51.530;5.974;2023-03-03T13:52:31;17.67;;;11.23;;
57561;SDS011;43397;51.530;5.974;2023-03-03T13:55:16;19.40;;;11.50;;
57561;SDS011;43397;51.530;5.974;2023-03-03T13:57:50;18.88;;;11.38;;
57561;SDS011;43397;51.530;5.974;2023-03-03T14:03:22;19.08;;;10.73;;
57561;SDS011;43397;51.530;5.974;2023-03-03T14:06:13;18.60;;;11.90;;
57561;SDS011;43397;51.530;5.974;2023-03-03T14:08:43;22.80;;;11.95;;
57561;SDS011;43397;51.530;5.974;2023-03-03T14:11:22;20.98;;;12.15;;
57561;SDS011;43397;51.530;5.974;2023-03-03T14:13:55;19.58;;;11.60;;
57561;SDS011;43397;51.530;5.974;2023-03-03T14:16:34;17.73;;;11.68;;
57561;SDS011;43397;51.530;5.974;2023-03-03T14:19:08;18.80;;;12.07;;
57561;SDS011;43397;51.530;5.974;2023-03-03T14:21:39;20.50;;;11.35;;
57561;SDS011;43397;51.530;5.974;2023-03-03T14:24:14;18.85;;;11.23;;
57561;SDS011;43397;51.530;5.974;2023-03-03T14:26:47;19.38;;;11.43;;
57561;SDS011;43397;51.530;5.974;2023-03-03T14:29:18;24.17;;;12.77;;
57561;SDS011;43397;51.530;5.974;2023-03-03T14:31:47;19.67;;;11.07;;
57561;SDS011;43397;51.530;5.974;2023-03-03T14:37:09;19.45;;;12.00;;
57561;SDS011;43397;51.530;5.974;2023-03-03T14:39:46;21.65;;;11.50;;
57561;SDS011;43397;51.530;5.974;2023-03-03T14:42:30;20.00;;;11.32;;
57561;SDS011;43397;51.530;5.974;2023-03-03T14:44:59;21.70;;;11.48;;
57561;SDS011;43397;51.530;5.974;2023-03-03T14:47:41;19.40;;;12.57;;
57561;SDS011;43397;51.530;5.974;2023-03-03T14:50:27;25.10;;;14.05;;
57561;SDS011;43397;51.530;5.974;2023-03-03T14:53:02;21.85;;;11.68;;
57561;SDS011;43397;51.530;5.974;2023-03-03T14:55:34;23.98;;;13.02;;
57561;SDS011;43397;51.530;5.974;2023-03-03T14:58:06;20.75;;;11.60;;